sensor_id;sensor_type;location;lat;lon;timestamp;P1;durP1;ratioP1;P2;durP2;ratioP2
74898;SDS011;63458;48.210;16.338;2022-11-15T00:00:41;56.42;;;26.00;;
74898;SDS011;63458;48.210;16.338;2022-11-15T00:03:07;60.00;;;26.45;;
74898;SDS011;63458;48.210;16.338;2022-11-15T00:05:36;57.78;;;26.90;;
74898;SDS011;63458;48.210;16.338;2022-11-15T00:08:02;53.72;;;24.75;;
74898;SDS011;63458;48.210;16.338;2022-11-15T00:10:28;54.75;;;25.10;;
74898;SDS011;63458;48.210;16.338;2022-11-15T00:12:54;55.83;;;24.67;;
74898;SDS011;63458;48.210;16.338;2022-11-15T00:15:20;54.75;;;24.05;;
74898;SDS011;63458;48.210;16.338;2022-11-15T00:17:49;50.45;;;24.13;;
74898;SDS011;63458;48.210;16.338;2022-11-15T00:20:16;50.67;;;23.90;;
74898;SDS011;63458;48.210;16.338;2022-11-15T00:22:42;55.63;;;25.63;;
74898;SDS011;63458;48.210;16.338;2022-11-15T00:25:08;57.72;;;26.05;;
74898;SDS011;63458;48.210;16.338;2022-11-15T00:27:34;54.83;;;23.25;;
74898;SDS011;63458;48.210;16.338;2022-11-15T00:30:00;60.03;;;26.00;;
74898;SDS011;63458;48.210;16.338;2022-11-15T00:32:30;56.33;;;24.75;;
74898;SDS011;63458;48.210;16.338;2022-11-15T00:34:56;57.50;;;26.52;;
74898;SDS011;63458;48.210;16.338;2022-11-15T00:37:22;51.90;;;23.65;;
74898;SDS011;63458;48.210;16.338;2022-11-15T00:39:48;55.45;;;26.13;;
74898;SDS011;63458;48.210;16.338;2022-11-15T00:42:14;55.15;;;26.42;;
74898;SDS011;63458;48.210;16.338;2022-11-15T00:44:40;54.10;;;25.13;;
74898;SDS011;63458;48.210;16.338;2022-11-15T00:47:06;57.88;;;25.85;;
74898;SDS011;63458;48.210;16.338;2022-11-15T00:49:32;62.42;;;25.83;;
74898;SDS011;63458;48.210;16.338;2022-11-15T00:51:58;57.92;;;27.10;;
74898;SDS011;63458;48.210;16.338;2022-11-15T00:54:24;58.45;;;27.20;;
74898;SDS011;63458;48.210;16.338;2022-11-15T00:56:50;58.80;;;26.15;;
74898;SDS011;63458;48.210;16.338;2022-11-15T00:59:16;58.08;;;30.10;;
74898;SDS011;63458;48.210;16.338;2022-11-15T01:01:42;51.60;;;25.27;;
74898;SDS011;63458;48.210;16.338;2022-11-15T01:04:08;50.85;;;24.27;;
74898;SDS011;63458;48.210;16.338;2022-11-15T01:06:34;53.22;;;24.48;;
74898;SDS011;63458;48.210;16.338;2022-11-15T01:09:00;49.03;;;22.80;;
74898;SDS011;63458;48.210;16.338;2022-11-15T01:11:26;48.95;;;24.15;;
74898;SDS011;63458;48.210;16.338;2022-11-15T01:13:52;49.30;;;23.13;;
74898;SDS011;63458;48.210;16.338;2022-11-15T01:16:20;50.20;;;24.70;;
74898;SDS011;63458;48.210;16.338;2022-11-15T01:18:46;54.28;;;23.48;;
74898;SDS011;63458;48.210;16.338;2022-11-15T01:21:16;52.15;;;23.98;;
74898;SDS011;63458;48.210;16.338;2022-11-15T01:23:42;55.92;;;25.27;;
74898;SDS011;63458;48.210;16.338;2022-11-15T01:26:10;55.47;;;25.08;;
74898;SDS011;63458;48.210;16.338;2022-11-15T01:28:37;55.92;;;26.27;;
74898;SDS011;63458;48.210;16.338;2022-11-15T01:31:05;56.88;;;26.83;;
74898;SDS011;63458;48.210;16.338;2022-11-15T01:33:33;56.83;;;25.83;;
74898;SDS011;63458;48.210;16.338;2022-11-15T01:36:02;61.55;;;27.00;;
74898;SDS011;63458;48.210;16.338;2022-11-15T01:38:28;62.58;;;26.45;;
74898;SDS011;63458;48.210;16.338;2022-11-15T01:40:54;55.78;;;26.90;;
74898;SDS011;63458;48.210;16.338;2022-11-15T01:45:49;55.13;;;26.48;;
74898;SDS011;63458;48.210;16.338;2022-11-15T01:48:15;60.10;;;25.70;;
74898;SDS011;63458;48.210;16.338;2022-11-15T01:50:41;51.95;;;25.42;;
74898;SDS011;63458;48.210;16.338;2022-11-15T01:53:07;46.85;;;23.98;;
74898;SDS011;63458;48.210;16.338;2022-11-15T01:55:35;50.95;;;24.38;;
74898;SDS011;63458;48.210;16.338;2022-11-15T01:58:02;49.47;;;24.52;;
74898;SDS011;63458;48.210;16.338;2022-11-15T02:00:30;47.78;;;22.15;;
74898;SDS011;63458;48.210;16.338;2022-11-15T02:02:56;45.75;;;22.75;;
74898;SDS011;63458;48.210;16.338;2022-11-15T02:05:23;45.30;;;20.27;;
74898;SDS011;63458;48.210;16.338;2022-11-15T02:07:49;47.55;;;22.13;;
74898;SDS011;63458;48.210;16.338;2022-11-15T02:10:19;42.67;;;21.35;;
74898;SDS011;63458;48.210;16.338;2022-11-15T02:12:45;47.10;;;21.65;;
74898;SDS011;63458;48.210;16.338;2022-11-15T02:15:12;50.13;;;23.40;;
74898;SDS011;63458;48.210;16.338;2022-11-15T02:18:24;48.10;;;22.25;;
74898;SDS011;63458;48.210;16.338;2022-11-15T02:30:47;47.55;;;20.58;;
74898;SDS011;63458;48.210;16.338;2022-11-15T02:35:57;45.83;;;21.67;;
74898;SDS011;63458;48.210;16.338;2022-11-15T02:43:18;48.28;;;22.17;;
74898;SDS011;63458;48.210;16.338;2022-11-15T02:46:07;48.65;;;20.85;;
74898;SDS011;63458;48.210;16.338;2022-11-15T02:48:34;47.67;;;24.20;;
74898;SDS011;63458;48.210;16.338;2022-11-15T02:51:01;47.55;;;22.67;;
74898;SDS011;63458;48.210;16.338;2022-11-15T02:53:27;48.83;;;22.80;;
74898;SDS011;63458;48.210;16.338;2022-11-15T02:55:53;50.60;;;21.60;;
74898;SDS011;63458;48.210;16.338;2022-11-15T03:08:51;46.70;;;22.20;;
74898;SDS011;63458;48.210;16.338;2022-11-15T03:11:20;42.53;;;20.35;;
74898;SDS011;63458;48.210;16.338;2022-11-15T03:16:15;42.08;;;19.67;;
74898;SDS011;63458;48.210;16.338;2022-11-15T03:18:47;48.85;;;22.25;;
74898;SDS011;63458;48.210;16.338;2022-11-15T03:21:14;43.38;;;21.15;;
74898;SDS011;63458;48.210;16.338;2022-11-15T03:23:41;45.22;;;23.00;;
74898;SDS011;63458;48.210;16.338;2022-11-15T03:26:08;47.17;;;23.13;;
74898;SDS011;63458;48.210;16.338;2022-11-15T03:28:36;42.35;;;20.10;;
74898;SDS011;63458;48.210;16.338;2022-11-15T03:31:03;41.55;;;21.75;;
74898;SDS011;63458;48.210;16.338;2022-11-15T03:36:15;40.78;;;19.90;;
74898;SDS011;63458;48.210;16.338;2022-11-15T03:38:42;42.08;;;20.45;;
74898;SDS011;63458;48.210;16.338;2022-11-15T03:41:11;40.92;;;20.77;;
74898;SDS011;63458;48.210;16.338;2022-11-15T03:43:45;41.60;;;20.90;;
74898;SDS011;63458;48.210;16.338;2022-11-15T03:46:13;41.03;;;21.50;;
74898;SDS011;63458;48.210;16.338;2022-11-15T03:48:41;38.47;;;19.27;;
74898;SDS011;63458;48.210;16.338;2022-11-15T03:51:09;41.65;;;20.38;;
74898;SDS011;63458;48.210;16.338;2022-11-15T03:53:35;41.45;;;21.10;;
74898;SDS011;63458;48.210;16.338;2022-11-15T03:56:01;41.70;;;21.02;;
74898;SDS011;63458;48.210;16.338;2022-11-15T03:58:27;44.28;;;19.60;;
74898;SDS011;63458;48.210;16.338;2022-11-15T04:00:53;44.47;;;21.85;;
74898;SDS011;63458;48.210;16.338;2022-11-15T04:03:19;40.60;;;18.63;;
74898;SDS011;63458;48.210;16.338;2022-11-15T04:05:45;46.53;;;19.70;;
74898;SDS011;63458;48.210;16.338;2022-11-15T04:08:11;41.45;;;20.23;;
74898;SDS011;63458;48.210;16.338;2022-11-15T04:10:37;39.90;;;19.30;;
74898;SDS011;63458;48.210;16.338;2022-11-15T04:13:03;41.95;;;18.98;;
74898;SDS011;63458;48.210;16.338;2022-11-15T04:15:29;40.50;;;19.02;;
74898;SDS011;63458;48.210;16.338;2022-11-15T04:17:56;40.90;;;18.65;;
74898;SDS011;63458;48.210;16.338;2022-11-15T04:20:23;41.42;;;19.83;;
74898;SDS011;63458;48.210;16.338;2022-11-15T04:23:15;41.72;;;20.15;;
74898;SDS011;63458;48.210;16.338;2022-11-15T04:26:02;38.63;;;19.73;;
74898;SDS011;63458;48.210;16.338;2022-11-15T04:28:28;42.25;;;19.20;;
74898;SDS011;63458;48.210;16.338;2022-11-15T04:30:55;45.80;;;19.48;;
74898;SDS011;63458;48.210;16.338;2022-11-15T04:33:21;43.70;;;20.58;;
74898;SDS011;63458;48.210;16.338;2022-11-15T04:35:47;42.08;;;20.52;;
74898;SDS011;63458;48.210;16.338;2022-11-15T04:38:34;42.78;;;20.48;;
74898;SDS011;63458;48.210;16.338;2022-11-15T04:41:00;45.85;;;21.92;;
74898;SDS011;63458;48.210;16.338;2022-11-15T04:43:26;44.33;;;22.33;;
74898;SDS011;63458;48.210;16.338;2022-11-15T04:45:52;47.80;;;21.35;;
74898;SDS011;63458;48.210;16.338;2022-11-15T04:48:18;42.78;;;20.65;;
74898;SDS011;63458;48.210;16.338;2022-11-15T04:50:44;48.15;;;19.92;;
74898;SDS011;63458;48.210;16.338;2022-11-15T04:53:12;43.53;;;21.20;;
74898;SDS011;63458;48.210;16.338;2022-11-15T04:55:38;46.13;;;20.55;;
74898;SDS011;63458;48.210;16.338;2022-11-15T04:58:04;48.22;;;22.75;;
74898;SDS011;63458;48.210;16.338;2022-11-15T05:00:30;44.90;;;20.08;;
74898;SDS011;63458;48.210;16.338;2022-11-15T05:02:57;47.78;;;19.60;;
74898;SDS011;63458;48.210;16.338;2022-11-15T05:05:41;45.40;;;21.08;;
74898;SDS011;63458;48.210;16.338;2022-11-15T05:08:07;42.47;;;19.25;;
74898;SDS011;63458;48.210;16.338;2022-11-15T05:10:33;46.00;;;18.27;;
74898;SDS011;63458;48.210;16.338;2022-11-15T05:12:59;43.00;;;20.77;;
74898;SDS011;63458;48.210;16.338;2022-11-15T05:15:25;45.70;;;20.38;;
74898;SDS011;63458;48.210;16.338;2022-11-15T05:17:56;45.70;;;22.27;;
74898;SDS011;63458;48.210;16.338;2022-11-15T05:20:22;49.10;;;22.10;;
74898;SDS011;63458;48.210;16.338;2022-11-15T05:22:48;50.17;;;22.73;;
74898;SDS011;63458;48.210;16.338;2022-11-15T05:25:14;49.90;;;22.45;;
74898;SDS011;63458;48.210;16.338;2022-11-15T05:27:40;48.17;;;22.10;;
74898;SDS011;63458;48.210;16.338;2022-11-15T05:30:06;50.78;;;20.30;;
74898;SDS011;63458;48.210;16.338;2022-11-15T05:32:33;50.42;;;22.83;;
74898;SDS011;63458;48.210;16.338;2022-11-15T05:34:59;47.10;;;20.83;;
74898;SDS011;63458;48.210;16.338;2022-11-15T05:37:25;53.80;;;22.85;;
74898;SDS011;63458;48.210;16.338;2022-11-15T05:39:51;52.63;;;23.65;;
74898;SDS011;63458;48.210;16.338;2022-11-15T05:42:17;52.83;;;22.15;;
74898;SDS011;63458;48.210;16.338;2022-11-15T05:44:44;58.05;;;23.05;;
74898;SDS011;63458;48.210;16.338;2022-11-15T05:47:12;46.67;;;20.50;;
74898;SDS011;63458;48.210;16.338;2022-11-15T05:49:39;54.65;;;22.42;;
74898;SDS011;63458;48.210;16.338;2022-11-15T05:52:06;50.10;;;23.15;;
74898;SDS011;63458;48.210;16.338;2022-11-15T05:54:33;56.58;;;22.42;;
74898;SDS011;63458;48.210;16.338;2022-11-15T05:56:59;46.70;;;20.85;;
74898;SDS011;63458;48.210;16.338;2022-11-15T05:59:27;46.78;;;21.17;;
74898;SDS011;63458;48.210;16.338;2022-11-15T06:01:53;47.63;;;20.48;;
74898;SDS011;63458;48.210;16.338;2022-11-15T06:04:19;43.25;;;19.55;;
74898;SDS011;63458;48.210;16.338;2022-11-15T06:06:45;39.88;;;18.88;;
74898;SDS011;63458;48.210;16.338;2022-11-15T06:09:11;44.95;;;19.45;;
74898;SDS011;63458;48.210;16.338;2022-11-15T06:11:37;48.83;;;21.42;;
74898;SDS011;63458;48.210;16.338;2022-11-15T06:14:03;43.50;;;20.10;;
74898;SDS011;63458;48.210;16.338;2022-11-15T06:16:30;47.22;;;21.67;;
74898;SDS011;63458;48.210;16.338;2022-11-15T06:18:56;51.60;;;22.75;;
74898;SDS011;63458;48.210;16.338;2022-11-15T06:21:21;46.17;;;20.52;;
74898;SDS011;63458;48.210;16.338;2022-11-15T06:23:48;46.42;;;20.55;;
74898;SDS011;63458;48.210;16.338;2022-11-15T06:26:14;49.38;;;20.42;;
74898;SDS011;63458;48.210;16.338;2022-11-15T06:28:40;42.17;;;19.67;;
74898;SDS011;63458;48.210;16.338;2022-11-15T06:31:07;41.78;;;19.30;;
74898;SDS011;63458;48.210;16.338;2022-11-15T06:33:34;41.75;;;19.50;;
74898;SDS011;63458;48.210;16.338;2022-11-15T06:36:01;43.42;;;19.88;;
74898;SDS011;63458;48.210;16.338;2022-11-15T06:38:27;48.65;;;24.65;;
74898;SDS011;63458;48.210;16.338;2022-11-15T06:40:53;50.83;;;23.65;;
74898;SDS011;63458;48.210;16.338;2022-11-15T06:43:19;51.50;;;23.92;;
74898;SDS011;63458;48.210;16.338;2022-11-15T06:45:45;89.68;;;46.40;;
74898;SDS011;63458;48.210;16.338;2022-11-15T06:48:11;51.20;;;24.25;;
74898;SDS011;63458;48.210;16.338;2022-11-15T06:50:37;44.67;;;19.73;;
74898;SDS011;63458;48.210;16.338;2022-11-15T06:53:03;45.83;;;21.10;;
74898;SDS011;63458;48.210;16.338;2022-11-15T06:55:29;44.92;;;19.50;;
74898;SDS011;63458;48.210;16.338;2022-11-15T06:57:55;45.40;;;20.77;;
74898;SDS011;63458;48.210;16.338;2022-11-15T07:00:21;45.42;;;20.27;;
74898;SDS011;63458;48.210;16.338;2022-11-15T07:02:48;42.17;;;20.15;;
74898;SDS011;63458;48.210;16.338;2022-11-15T07:05:14;42.72;;;19.42;;
74898;SDS011;63458;48.210;16.338;2022-11-15T07:07:41;37.92;;;19.20;;
74898;SDS011;63458;48.210;16.338;2022-11-15T07:10:07;36.40;;;17.10;;
74898;SDS011;63458;48.210;16.338;2022-11-15T07:12:33;41.70;;;18.67;;
74898;SDS011;63458;48.210;16.338;2022-11-15T07:15:00;39.03;;;19.20;;
74898;SDS011;63458;48.210;16.338;2022-11-15T07:17:26;37.72;;;18.35;;
74898;SDS011;63458;48.210;16.338;2022-11-15T07:19:52;34.25;;;17.17;;
74898;SDS011;63458;48.210;16.338;2022-11-15T07:22:18;37.50;;;18.60;;
74898;SDS011;63458;48.210;16.338;2022-11-15T07:24:44;33.92;;;18.27;;
74898;SDS011;63458;48.210;16.338;2022-11-15T07:27:09;33.78;;;16.33;;
74898;SDS011;63458;48.210;16.338;2022-11-15T07:29:35;32.72;;;16.23;;
74898;SDS011;63458;48.210;16.338;2022-11-15T07:32:01;37.83;;;17.83;;
74898;SDS011;63458;48.210;16.338;2022-11-15T07:34:28;33.47;;;17.17;;
74898;SDS011;63458;48.210;16.338;2022-11-15T07:36:53;36.40;;;17.27;;
74898;SDS011;63458;48.210;16.338;2022-11-15T07:39:20;39.20;;;18.75;;
74898;SDS011;63458;48.210;16.338;2022-11-15T07:41:45;38.50;;;17.50;;
74898;SDS011;63458;48.210;16.338;2022-11-15T07:44:13;41.53;;;18.70;;
74898;SDS011;63458;48.210;16.338;2022-11-15T07:46:39;47.83;;;20.98;;
74898;SDS011;63458;48.210;16.338;2022-11-15T07:49:06;45.67;;;20.52;;
74898;SDS011;63458;48.210;16.338;2022-11-15T07:51:32;51.15;;;20.35;;
74898;SDS011;63458;48.210;16.338;2022-11-15T07:53:58;53.83;;;22.92;;
74898;SDS011;63458;48.210;16.338;2022-11-15T07:56:24;40.65;;;18.85;;
74898;SDS011;63458;48.210;16.338;2022-11-15T07:58:50;48.97;;;19.58;;
74898;SDS011;63458;48.210;16.338;2022-11-15T08:01:16;55.28;;;22.85;;
74898;SDS011;63458;48.210;16.338;2022-11-15T08:03:42;52.90;;;21.75;;
74898;SDS011;63458;48.210;16.338;2022-11-15T08:06:08;52.58;;;23.30;;
74898;SDS011;63458;48.210;16.338;2022-11-15T08:08:34;52.33;;;25.38;;
74898;SDS011;63458;48.210;16.338;2022-11-15T08:11:00;54.60;;;23.80;;
74898;SDS011;63458;48.210;16.338;2022-11-15T08:13:26;57.22;;;22.58;;
74898;SDS011;63458;48.210;16.338;2022-11-15T08:15:57;41.70;;;20.42;;
74898;SDS011;63458;48.210;16.338;2022-11-15T08:18:23;44.70;;;21.10;;
74898;SDS011;63458;48.210;16.338;2022-11-15T08:20:49;55.60;;;24.10;;
74898;SDS011;63458;48.210;16.338;2022-11-15T08:23:15;49.75;;;21.92;;
74898;SDS011;63458;48.210;16.338;2022-11-15T08:25:41;47.20;;;20.00;;
74898;SDS011;63458;48.210;16.338;2022-11-15T08:28:07;52.10;;;22.65;;
74898;SDS011;63458;48.210;16.338;2022-11-15T08:30:34;45.92;;;21.63;;
74898;SDS011;63458;48.210;16.338;2022-11-15T08:33:01;46.75;;;19.90;;
74898;SDS011;63458;48.210;16.338;2022-11-15T08:35:27;50.85;;;20.67;;
74898;SDS011;63458;48.210;16.338;2022-11-15T08:37:53;48.88;;;20.67;;
74898;SDS011;63458;48.210;16.338;2022-11-15T08:40:19;51.55;;;21.90;;
74898;SDS011;63458;48.210;16.338;2022-11-15T08:42:46;48.63;;;21.02;;
74898;SDS011;63458;48.210;16.338;2022-11-15T08:45:12;48.90;;;22.30;;
74898;SDS011;63458;48.210;16.338;2022-11-15T08:47:38;46.78;;;22.67;;
74898;SDS011;63458;48.210;16.338;2022-11-15T08:50:04;48.33;;;21.75;;
74898;SDS011;63458;48.210;16.338;2022-11-15T08:52:30;46.15;;;21.95;;
74898;SDS011;63458;48.210;16.338;2022-11-15T08:54:57;52.50;;;24.20;;
74898;SDS011;63458;48.210;16.338;2022-11-15T08:57:23;49.80;;;21.83;;
74898;SDS011;63458;48.210;16.338;2022-11-15T08:59:49;55.50;;;23.33;;
74898;SDS011;63458;48.210;16.338;2022-11-15T09:02:15;47.28;;;21.45;;
74898;SDS011;63458;48.210;16.338;2022-11-15T09:04:41;46.80;;;21.27;;
74898;SDS011;63458;48.210;16.338;2022-11-15T09:07:11;50.05;;;21.58;;
74898;SDS011;63458;48.210;16.338;2022-11-15T09:09:37;50.85;;;20.33;;
74898;SDS011;63458;48.210;16.338;2022-11-15T09:12:04;49.65;;;21.23;;
74898;SDS011;63458;48.210;16.338;2022-11-15T09:14:30;48.92;;;21.08;;
74898;SDS011;63458;48.210;16.338;2022-11-15T09:16:56;47.92;;;21.85;;
74898;SDS011;63458;48.210;16.338;2022-11-15T09:19:23;50.08;;;21.63;;
74898;SDS011;63458;48.210;16.338;2022-11-15T09:21:49;44.45;;;20.27;;
74898;SDS011;63458;48.210;16.338;2022-11-15T09:24:15;44.65;;;20.58;;
74898;SDS011;63458;48.210;16.338;2022-11-15T09:26:42;45.28;;;21.33;;
74898;SDS011;63458;48.210;16.338;2022-11-15T09:29:08;48.25;;;21.95;;
74898;SDS011;63458;48.210;16.338;2022-11-15T09:31:34;45.83;;;20.73;;
74898;SDS011;63458;48.210;16.338;2022-11-15T09:34:00;46.55;;;22.35;;
74898;SDS011;63458;48.210;16.338;2022-11-15T09:36:26;54.67;;;22.13;;
74898;SDS011;63458;48.210;16.338;2022-11-15T09:38:52;51.05;;;20.48;;
74898;SDS011;63458;48.210;16.338;2022-11-15T09:44:05;49.33;;;21.80;;
74898;SDS011;63458;48.210;16.338;2022-11-15T09:47:26;53.65;;;23.52;;
74898;SDS011;63458;48.210;16.338;2022-11-15T09:49:20;45.95;;;22.20;;
74898;SDS011;63458;48.210;16.338;2022-11-15T09:51:50;48.35;;;21.38;;
74898;SDS011;63458;48.210;16.338;2022-11-15T09:54:21;49.35;;;21.90;;
74898;SDS011;63458;48.210;16.338;2022-11-15T09:56:49;50.38;;;24.27;;
74898;SDS011;63458;48.210;16.338;2022-11-15T10:04:14;49.20;;;22.33;;
74898;SDS011;63458;48.210;16.338;2022-11-15T10:06:42;52.53;;;25.50;;
74898;SDS011;63458;48.210;16.338;2022-11-15T10:11:41;58.28;;;25.35;;
74898;SDS011;63458;48.210;16.338;2022-11-15T10:14:21;59.70;;;26.17;;
74898;SDS011;63458;48.210;16.338;2022-11-15T10:24:25;60.17;;;26.73;;
74898;SDS011;63458;48.210;16.338;2022-11-15T10:26:53;52.78;;;24.85;;
74898;SDS011;63458;48.210;16.338;2022-11-15T10:29:20;57.45;;;25.10;;
74898;SDS011;63458;48.210;16.338;2022-11-15T10:31:46;50.78;;;24.80;;
74898;SDS011;63458;48.210;16.338;2022-11-15T10:34:13;55.28;;;26.15;;
74898;SDS011;63458;48.210;16.338;2022-11-15T10:36:44;57.83;;;24.27;;
74898;SDS011;63458;48.210;16.338;2022-11-15T10:39:11;53.90;;;25.85;;
74898;SDS011;63458;48.210;16.338;2022-11-15T10:41:38;58.05;;;26.27;;
74898;SDS011;63458;48.210;16.338;2022-11-15T10:46:45;50.78;;;26.17;;
74898;SDS011;63458;48.210;16.338;2022-11-15T10:49:22;60.15;;;27.08;;
74898;SDS011;63458;48.210;16.338;2022-11-15T10:51:56;61.78;;;28.48;;
74898;SDS011;63458;48.210;16.338;2022-11-15T10:57:17;55.95;;;24.60;;
74898;SDS011;63458;48.210;16.338;2022-11-15T10:59:48;63.85;;;27.35;;
74898;SDS011;63458;48.210;16.338;2022-11-15T11:04:59;53.90;;;25.17;;
74898;SDS011;63458;48.210;16.338;2022-11-15T11:07:27;60.55;;;27.48;;
74898;SDS011;63458;48.210;16.338;2022-11-15T11:10:04;57.53;;;26.70;;
74898;SDS011;63458;48.210;16.338;2022-11-15T11:12:31;58.90;;;28.52;;
74898;SDS011;63458;48.210;16.338;2022-11-15T11:14:58;64.53;;;27.17;;
74898;SDS011;63458;48.210;16.338;2022-11-15T11:25:26;54.47;;;26.20;;
74898;SDS011;63458;48.210;16.338;2022-11-15T11:28:01;61.15;;;26.58;;
74898;SDS011;63458;48.210;16.338;2022-11-15T11:33:14;58.63;;;26.92;;
74898;SDS011;63458;48.210;16.338;2022-11-15T11:41:16;56.70;;;25.77;;
74898;SDS011;63458;48.210;16.338;2022-11-15T11:51:15;56.33;;;23.85;;
74898;SDS011;63458;48.210;16.338;2022-11-15T11:53:59;52.60;;;24.05;;
74898;SDS011;63458;48.210;16.338;2022-11-15T11:56:28;60.22;;;26.70;;
74898;SDS011;63458;48.210;16.338;2022-11-15T11:58:56;54.60;;;28.70;;
74898;SDS011;63458;48.210;16.338;2022-11-15T12:01:26;52.22;;;24.88;;
74898;SDS011;63458;48.210;16.338;2022-11-15T12:03:55;56.80;;;26.42;;
74898;SDS011;63458;48.210;16.338;2022-11-15T12:06:41;52.97;;;23.67;;
74898;SDS011;63458;48.210;16.338;2022-11-15T12:14:26;57.40;;;23.85;;
74898;SDS011;63458;48.210;16.338;2022-11-15T12:16:53;55.33;;;23.58;;
74898;SDS011;63458;48.210;16.338;2022-11-15T12:19:19;51.13;;;25.00;;
74898;SDS011;63458;48.210;16.338;2022-11-15T12:21:47;49.92;;;25.77;;
74898;SDS011;63458;48.210;16.338;2022-11-15T12:24:38;50.88;;;23.98;;
74898;SDS011;63458;48.210;16.338;2022-11-15T12:29:42;49.15;;;23.98;;
74898;SDS011;63458;48.210;16.338;2022-11-15T12:34:45;50.97;;;26.13;;
74898;SDS011;63458;48.210;16.338;2022-11-15T12:40:17;50.63;;;25.00;;
74898;SDS011;63458;48.210;16.338;2022-11-15T12:56:24;51.92;;;21.65;;
74898;SDS011;63458;48.210;16.338;2022-11-15T13:04:24;50.95;;;25.38;;
74898;SDS011;63458;48.210;16.338;2022-11-15T13:07:04;49.38;;;24.23;;
74898;SDS011;63458;48.210;16.338;2022-11-15T13:11:58;50.70;;;23.98;;
74898;SDS011;63458;48.210;16.338;2022-11-15T13:14:46;49.45;;;25.75;;
74898;SDS011;63458;48.210;16.338;2022-11-15T13:19:45;53.58;;;24.20;;
74898;SDS011;63458;48.210;16.338;2022-11-15T13:22:12;41.88;;;24.50;;
74898;SDS011;63458;48.210;16.338;2022-11-15T13:24:57;44.38;;;22.92;;
74898;SDS011;63458;48.210;16.338;2022-11-15T13:27:23;42.72;;;21.58;;
74898;SDS011;63458;48.210;16.338;2022-11-15T13:29:49;42.60;;;22.05;;
74898;SDS011;63458;48.210;16.338;2022-11-15T13:32:15;42.60;;;24.00;;
74898;SDS011;63458;48.210;16.338;2022-11-15T13:34:48;43.03;;;23.42;;
74898;SDS011;63458;48.210;16.338;2022-11-15T13:39:46;49.35;;;23.85;;
74898;SDS011;63458;48.210;16.338;2022-11-15T13:42:16;41.78;;;22.23;;
74898;SDS011;63458;48.210;16.338;2022-11-15T13:45:02;48.42;;;27.75;;
74898;SDS011;63458;48.210;16.338;2022-11-15T13:47:29;43.20;;;23.15;;
74898;SDS011;63458;48.210;16.338;2022-11-15T13:49:56;43.33;;;23.50;;
74898;SDS011;63458;48.210;16.338;2022-11-15T13:52:23;44.75;;;22.10;;
74898;SDS011;63458;48.210;16.338;2022-11-15T13:55:01;42.50;;;24.08;;
74898;SDS011;63458;48.210;16.338;2022-11-15T13:57:29;43.65;;;22.20;;
74898;SDS011;63458;48.210;16.338;2022-11-15T14:00:03;44.10;;;24.25;;
74898;SDS011;63458;48.210;16.338;2022-11-15T14:02:30;46.03;;;24.08;;
74898;SDS011;63458;48.210;16.338;2022-11-15T14:04:58;48.90;;;24.73;;
74898;SDS011;63458;48.210;16.338;2022-11-15T14:07:26;42.33;;;23.15;;
74898;SDS011;63458;48.210;16.338;2022-11-15T14:09:53;42.92;;;23.48;;
74898;SDS011;63458;48.210;16.338;2022-11-15T14:12:34;41.83;;;23.45;;
74898;SDS011;63458;48.210;16.338;2022-11-15T14:15:17;42.28;;;22.77;;
74898;SDS011;63458;48.210;16.338;2022-11-15T14:17:44;42.67;;;21.65;;
74898;SDS011;63458;48.210;16.338;2022-11-15T14:20:24;37.67;;;20.52;;
74898;SDS011;63458;48.210;16.338;2022-11-15T14:22:53;44.72;;;22.23;;
74898;SDS011;63458;48.210;16.338;2022-11-15T14:25:21;42.17;;;22.80;;
74898;SDS011;63458;48.210;16.338;2022-11-15T14:30:31;46.60;;;24.67;;
74898;SDS011;63458;48.210;16.338;2022-11-15T14:32:57;41.13;;;22.88;;
74898;SDS011;63458;48.210;16.338;2022-11-15T14:35:23;38.35;;;21.27;;
74898;SDS011;63458;48.210;16.338;2022-11-15T14:37:50;36.10;;;20.15;;
74898;SDS011;63458;48.210;16.338;2022-11-15T14:40:19;39.28;;;21.92;;
74898;SDS011;63458;48.210;16.338;2022-11-15T14:42:47;41.80;;;21.75;;
74898;SDS011;63458;48.210;16.338;2022-11-15T14:45:17;40.97;;;22.25;;
74898;SDS011;63458;48.210;16.338;2022-11-15T14:47:43;39.47;;;20.90;;
74898;SDS011;63458;48.210;16.338;2022-11-15T14:50:16;38.47;;;21.33;;
74898;SDS011;63458;48.210;16.338;2022-11-15T14:52:42;39.42;;;21.60;;
74898;SDS011;63458;48.210;16.338;2022-11-15T14:55:19;57.53;;;34.53;;
74898;SDS011;63458;48.210;16.338;2022-11-15T14:57:46;42.35;;;24.10;;
74898;SDS011;63458;48.210;16.338;2022-11-15T15:00:12;44.22;;;23.95;;
74898;SDS011;63458;48.210;16.338;2022-11-15T15:02:39;52.70;;;30.95;;
74898;SDS011;63458;48.210;16.338;2022-11-15T15:05:12;52.50;;;32.60;;
74898;SDS011;63458;48.210;16.338;2022-11-15T15:07:39;48.40;;;28.35;;
74898;SDS011;63458;48.210;16.338;2022-11-15T15:10:05;53.95;;;29.48;;
74898;SDS011;63458;48.210;16.338;2022-11-15T15:12:31;52.00;;;28.80;;
74898;SDS011;63458;48.210;16.338;2022-11-15T15:14:57;47.13;;;26.27;;
74898;SDS011;63458;48.210;16.338;2022-11-15T15:17:24;53.05;;;27.80;;
74898;SDS011;63458;48.210;16.338;2022-11-15T15:19:56;47.33;;;25.85;;
74898;SDS011;63458;48.210;16.338;2022-11-15T15:22:22;55.58;;;31.40;;
74898;SDS011;63458;48.210;16.338;2022-11-15T15:29:42;58.75;;;30.23;;
74898;SDS011;63458;48.210;16.338;2022-11-15T15:32:08;50.60;;;28.08;;
74898;SDS011;63458;48.210;16.338;2022-11-15T15:34:34;59.08;;;33.22;;
74898;SDS011;63458;48.210;16.338;2022-11-15T15:37:07;63.60;;;37.92;;
74898;SDS011;63458;48.210;16.338;2022-11-15T15:39:33;48.95;;;28.77;;
74898;SDS011;63458;48.210;16.338;2022-11-15T15:41:59;51.33;;;29.25;;
74898;SDS011;63458;48.210;16.338;2022-11-15T15:44:25;56.90;;;29.45;;
74898;SDS011;63458;48.210;16.338;2022-11-15T15:46:51;55.75;;;31.90;;
74898;SDS011;63458;48.210;16.338;2022-11-15T15:49:18;62.67;;;34.83;;
74898;SDS011;63458;48.210;16.338;2022-11-15T15:51:43;52.63;;;29.75;;
74898;SDS011;63458;48.210;16.338;2022-11-15T15:54:09;51.95;;;28.60;;
74898;SDS011;63458;48.210;16.338;2022-11-15T15:56:35;52.25;;;30.20;;
74898;SDS011;63458;48.210;16.338;2022-11-15T15:59:01;53.78;;;28.63;;
74898;SDS011;63458;48.210;16.338;2022-11-15T16:01:28;56.25;;;33.20;;
74898;SDS011;63458;48.210;16.338;2022-11-15T16:03:54;54.80;;;30.15;;
74898;SDS011;63458;48.210;16.338;2022-11-15T16:06:27;53.92;;;30.15;;
74898;SDS011;63458;48.210;16.338;2022-11-15T16:08:58;56.40;;;30.63;;
74898;SDS011;63458;48.210;16.338;2022-11-15T16:11:24;54.30;;;31.42;;
74898;SDS011;63458;48.210;16.338;2022-11-15T16:13:50;54.25;;;29.75;;
74898;SDS011;63458;48.210;16.338;2022-11-15T16:16:16;53.08;;;28.77;;
74898;SDS011;63458;48.210;16.338;2022-11-15T16:18:43;54.72;;;27.95;;
74898;SDS011;63458;48.210;16.338;2022-11-15T16:21:09;56.28;;;28.80;;
74898;SDS011;63458;48.210;16.338;2022-11-15T16:23:35;53.95;;;28.20;;
74898;SDS011;63458;48.210;16.338;2022-11-15T16:26:01;53.40;;;27.40;;